Time;durP1;ratioP1;P1;durP2;ratioP2;P2;SDS_P1;SDS_P2;PMS_P1;PMS_P2;Temp;Humidity;BMP_temperature;BMP_pressure;BME280_temperature;BME280_humidity;BME280_pressure;Samples;Min_cycle;Max_cycle;Signal;HPM_P1;HPM_P2
2022/10/09 00:00:32;;;;;;;;;;;10.80;99.90;;;;;;4228271;28;20365;-61
2022/10/09 00:02:33;;;;;;;;;;;10.80;99.90;;;;;;4229456;28;19912;-61
2022/10/09 00:04:34;;;;;;;;;;;10.80;99.90;;;;;;4228795;27;19935;-60
2022/10/09 00:06:35;;;;;;;;;;;10.80;99.90;;;;;;4229652;28;19918;-61
2022/10/09 00:08:42;;;;;;;;;;;10.70;99.90;;;;;;4227842;28;19908;-59
2022/10/09 00:10:43;;;;;;;;;;;10.70;99.90;;;;;;4229501;28;20476;-59
2022/10/09 00:12:44;;;;;;;;;;;10.60;99.90;;;;;;4228477;28;19957;-60
2022/10/09 00:14:45;;;;;;;;;;;10.60;99.90;;;;;;4228874;28;20276;-58
2022/10/09 00:16:46;;;;;;;;;;;10.50;99.90;;;;;;4228864;28;19908;-61
2022/10/09 00:18:47;;;;;;;;;;;10.50;99.90;;;;;;4228395;28;19912;-58
2022/10/09 00:20:48;;;;;;;;;;;10.50;99.90;;;;;;4228419;28;19912;-60
2022/10/09 00:22:49;;;;;;;;;;;10.40;99.90;;;;;;4227720;28;19923;-60
2022/10/09 00:24:50;;;;;;;;;;;10.40;99.90;;;;;;4229370;28;19912;-60
2022/10/09 00:26:51;;;;;;;;;;;10.40;99.90;;;;;;4228340;28;20604;-62
2022/10/09 00:28:52;;;;;;;;;;;10.40;99.90;;;;;;4229196;28;19916;-60
2022/10/09 00:30:53;;;;;;;;;;;10.30;99.90;;;;;;4228115;28;20275;-61
2022/10/09 00:32:54;;;;;;;;;;;10.40;99.90;;;;;;4229259;28;19911;-60
2022/10/09 00:34:55;;;;;;;;;;;10.30;99.90;;;;;;4227851;28;19912;-63
2022/10/09 00:36:56;;;;;;;;;;;10.30;99.90;;;;;;4229194;28;19938;-58
2022/10/09 00:38:56;;;;;;;;;;;10.30;99.90;;;;;;4228100;28;19981;-60
2022/10/09 00:40:57;;;;;;;;;;;10.30;99.90;;;;;;4228797;28;20071;-62
2022/10/09 00:42:58;;;;;;;;;;;10.30;99.90;;;;;;4228396;28;19918;-60
2022/10/09 00:45:00;;;;;;;;;;;10.40;99.90;;;;;;4228319;28;20275;-61
2022/10/09 00:47:02;;;;;;;;;;;10.30;99.90;;;;;;4228534;28;19942;-59
2022/10/09 00:49:07;;;;;;;;;;;10.40;99.90;;;;;;4227796;28;19916;-61
2022/10/09 00:51:08;;;;;;;;;;;10.40;99.90;;;;;;4228704;28;19973;-60
2022/10/09 00:53:12;;;;;;;;;;;10.40;99.90;;;;;;4243187;27;19915;-61
2022/10/09 00:55:13;;;;;;;;;;;10.40;99.90;;;;;;4229454;28;20313;-60
2022/10/09 00:57:14;;;;;;;;;;;10.40;99.90;;;;;;4227946;28;19973;-60
2022/10/09 00:59:15;;;;;;;;;;;10.40;99.90;;;;;;4228949;28;19908;-60
2022/10/09 01:01:17;;;;;;;;;;;10.40;99.90;;;;;;4227635;28;19969;-61
2022/10/09 01:03:17;;;;;;;;;;;10.40;99.90;;;;;;4228807;28;19908;-61
2022/10/09 01:05:21;;;;;;;;;;;10.50;99.90;;;;;;4227739;28;19988;-59
2022/10/09 01:07:31;;;;;;;;;;;10.50;99.90;;;;;;4229006;28;19935;-60
2022/10/09 01:09:38;;;;;;;;;;;10.50;99.90;;;;;;4242920;28;19915;-61
2022/10/09 01:11:58;;;;;;;;;;;10.50;99.90;;;;;;4228999;28;19957;-60
2022/10/09 01:14:28;;;;;;;;;;;10.50;99.90;;;;;;4227673;28;19924;-60
2022/10/09 01:16:34;;;;;;;;;;;10.60;99.90;;;;;;4206150;28;20356;-60
2022/10/09 01:18:38;;;;;;;;;;;10.60;99.90;;;;;;4227410;28;19908;-59
2022/10/09 01:20:42;;;;;;;;;;;10.50;99.90;;;;;;4231650;28;19915;-59
2022/10/09 01:22:49;;;;;;;;;;;10.60;99.90;;;;;;4231293;27;19907;-59
2022/10/09 01:24:53;;;;;;;;;;;10.50;99.90;;;;;;4231886;28;19911;-59
2022/10/09 01:27:01;;;;;;;;;;;10.60;99.90;;;;;;4225370;28;20401;-59
2022/10/09 01:29:06;;;;;;;;;;;10.60;99.90;;;;;;4232303;27;19961;-59
2022/10/09 01:31:08;;;;;;;;;;;10.60;99.90;;;;;;4230943;28;19907;-58
2022/10/09 01:33:09;;;;;;;;;;;10.60;99.90;;;;;;4232093;28;19947;-58
2022/10/09 01:35:11;;;;;;;;;;;10.60;99.90;;;;;;4231001;28;19957;-59
2022/10/09 01:37:13;;;;;;;;;;;10.60;99.90;;;;;;4231520;28;19907;-57
2022/10/09 01:39:17;;;;;;;;;;;10.60;99.90;;;;;;4231052;28;19961;-58
2022/10/09 01:41:18;;;;;;;;;;;10.50;99.90;;;;;;4231126;28;19911;-59
2022/10/09 01:43:19;;;;;;;;;;;10.60;99.90;;;;;;4231285;28;20264;-58
2022/10/09 01:45:20;;;;;;;;;;;10.60;99.90;;;;;;4230973;28;19918;-60
2022/10/09 01:47:21;;;;;;;;;;;10.60;99.90;;;;;;4231384;28;20425;-59
2022/10/09 01:49:40;;;;;;;;;;;10.60;99.90;;;;;;4229996;28;19915;-57
2022/10/09 01:51:48;;;;;;;;;;;10.60;99.90;;;;;;4230311;28;19915;-59
2022/10/09 01:53:50;;;;;;;;;;;10.60;99.90;;;;;;4230572;28;20304;-60
2022/10/09 01:56:03;;;;;;;;;;;10.60;99.90;;;;;;4232112;28;19908;-60
2022/10/09 01:58:04;;;;;;;;;;;10.60;99.90;;;;;;4230118;27;19957;-60
2022/10/09 02:00:07;;;;;;;;;;;10.60;99.90;;;;;;4230831;28;20397;-59
2022/10/09 02:02:09;;;;;;;;;;;10.60;99.90;;;;;;4230318;28;19920;-60
2022/10/09 02:04:12;;;;;;;;;;;10.50;99.90;;;;;;4231624;28;19916;-60
2022/10/09 02:06:14;;;;;;;;;;;10.50;99.90;;;;;;4230449;28;19957;-60
2022/10/09 02:08:17;;;;;;;;;;;10.50;99.90;;;;;;4231654;28;20329;-59
2022/10/09 02:10:19;;;;;;;;;;;10.40;99.90;;;;;;4230248;28;19915;-58
2022/10/09 02:12:20;;;;;;;;;;;10.40;99.90;;;;;;4230368;28;20393;-59
2022/10/09 02:14:21;;;;;;;;;;;10.30;99.90;;;;;;4230503;28;20352;-59
2022/10/09 02:16:22;;;;;;;;;;;10.30;99.90;;;;;;4230695;28;19907;-60
2022/10/09 02:18:41;;;;;;;;;;;10.30;99.90;;;;;;4229883;28;19914;-60
2022/10/09 02:20:44;;;;;;;;;;;10.30;99.90;;;;;;4231429;27;19912;-61
2022/10/09 02:22:45;;;;;;;;;;;10.30;99.90;;;;;;4230578;27;19912;-59
2022/10/09 02:24:46;;;;;;;;;;;10.30;99.90;;;;;;4231150;28;19908;-60
2022/10/09 02:26:48;;;;;;;;;;;10.30;99.90;;;;;;4230436;28;19912;-59
2022/10/09 02:28:49;;;;;;;;;;;10.30;99.90;;;;;;4230077;28;20360;-60
2022/10/09 02:31:02;;;;;;;;;;;10.30;99.90;;;;;;4229052;28;19923;-57
2022/10/09 02:33:04;;;;;;;;;;;10.20;99.90;;;;;;4229474;28;19960;-59
2022/10/09 02:35:05;;;;;;;;;;;10.20;99.90;;;;;;4230259;28;20310;-60
2022/10/09 02:37:06;;;;;;;;;;;10.20;99.90;;;;;;4230113;28;19911;-59
2022/10/09 02:39:07;;;;;;;;;;;10.20;99.90;;;;;;4231267;27;19912;-60
2022/10/09 02:41:08;;;;;;;;;;;10.20;99.90;;;;;;4230151;27;20762;-60
2022/10/09 02:43:09;;;;;;;;;;;10.20;99.90;;;;;;4231212;27;19923;-58
2022/10/09 02:45:10;;;;;;;;;;;10.20;99.90;;;;;;4228147;28;19916;-59
2022/10/09 02:47:11;;;;;;;;;;;10.20;99.90;;;;;;4229262;28;19911;-60
2022/10/09 02:49:12;;;;;;;;;;;10.20;99.90;;;;;;4229660;28;19912;-60
2022/10/09 02:51:13;;;;;;;;;;;10.20;99.90;;;;;;4230856;28;19923;-60
2022/10/09 02:53:14;;;;;;;;;;;10.20;99.90;;;;;;4229733;28;20670;-60
2022/10/09 02:55:15;;;;;;;;;;;10.20;99.90;;;;;;4230756;27;19960;-60
2022/10/09 02:57:16;;;;;;;;;;;10.20;99.90;;;;;;4229756;28;19915;-59
2022/10/09 02:59:17;;;;;;;;;;;10.20;99.90;;;;;;4230320;28;19912;-60
2022/10/09 03:01:18;;;;;;;;;;;10.20;99.90;;;;;;4229696;28;19924;-60
2022/10/09 03:03:19;;;;;;;;;;;10.20;99.90;;;;;;4229938;28;19941;-59
2022/10/09 03:05:20;;;;;;;;;;;10.20;99.90;;;;;;4230323;28;20325;-60
2022/10/09 03:07:21;;;;;;;;;;;10.10;99.90;;;;;;4228160;28;19914;-60
2022/10/09 03:09:22;;;;;;;;;;;10.10;99.90;;;;;;4230099;28;20283;-58
2022/10/09 03:11:24;;;;;;;;;;;10.00;99.90;;;;;;4229127;28;20024;-59
2022/10/09 03:13:25;;;;;;;;;;;10.00;99.90;;;;;;4230852;27;19908;-58
2022/10/09 03:15:26;;;;;;;;;;;10.00;99.90;;;;;;4229270;28;19999;-58
2022/10/09 03:17:26;;;;;;;;;;;9.90;99.90;;;;;;4230768;28;19915;-59
2022/10/09 03:19:27;;;;;;;;;;;9.90;99.90;;;;;;4228657;28;20353;-58
2022/10/09 03:21:28;;;;;;;;;;;9.90;99.90;;;;;;4230399;28;19960;-60
2022/10/09 03:23:29;;;;;;;;;;;10.00;99.90;;;;;;4229393;27;20351;-56
2022/10/09 03:25:30;;;;;;;;;;;9.90;99.90;;;;;;4230870;28;19911;-59
2022/10/09 03:27:31;;;;;;;;;;;9.90;99.90;;;;;;4229426;28;20284;-60
2022/10/09 03:29:32;;;;;;;;;;;9.80;99.90;;;;;;4229837;28;19911;-59
2022/10/09 03:31:34;;;;;;;;;;;9.80;99.90;;;;;;4229728;28;19916;-59
2022/10/09 03:33:36;;;;;;;;;;;9.80;99.90;;;;;;4229147;28;20310;-58
2022/10/09 03:35:37;;;;;;;;;;;9.80;99.90;;;;;;4229262;27;19969;-59
2022/10/09 03:37:38;;;;;;;;;;;9.80;99.90;;;;;;4228581;28;20627;-59
2022/10/09 03:39:38;;;;;;;;;;;9.90;99.90;;;;;;4229810;28;19908;-59
2022/10/09 03:41:39;;;;;;;;;;;9.90;99.90;;;;;;4228392;28;19922;-57
2022/10/09 03:43:40;;;;;;;;;;;9.90;99.90;;;;;;4229920;28;19911;-60
2022/10/09 03:45:42;;;;;;;;;;;9.90;99.90;;;;;;4229199;27;19943;-59
2022/10/09 03:47:43;;;;;;;;;;;9.80;99.90;;;;;;4230272;27;19915;-60
2022/10/09 03:49:44;;;;;;;;;;;9.80;99.90;;;;;;4228758;28;19966;-59
2022/10/09 03:51:44;;;;;;;;;;;9.80;99.90;;;;;;4229946;28;20850;-59
2022/10/09 03:53:45;;;;;;;;;;;9.80;99.90;;;;;;4228888;27;19912;-60
2022/10/09 03:55:46;;;;;;;;;;;9.70;99.90;;;;;;4230462;27;19961;-59
2022/10/09 03:57:47;;;;;;;;;;;9.70;99.90;;;;;;4227242;27;19935;-59
2022/10/09 03:59:48;;;;;;;;;;;9.70;99.90;;;;;;4229579;28;19911;-60
2022/10/09 04:01:49;;;;;;;;;;;9.60;99.90;;;;;;4228716;28;19919;-60
2022/10/09 04:03:50;;;;;;;;;;;9.60;99.90;;;;;;4228220;28;20421;-60
2022/10/09 04:05:51;;;;;;;;;;;9.60;99.90;;;;;;4229021;28;19908;-59
2022/10/09 04:07:52;;;;;;;;;;;9.50;99.90;;;;;;4228528;28;20276;-60
2022/10/09 04:09:53;;;;;;;;;;;9.50;99.90;;;;;;4229367;28;20027;-59
2022/10/09 04:11:53;;;;;;;;;;;9.40;99.90;;;;;;4228583;28;19915;-60
2022/10/09 04:13:54;;;;;;;;;;;9.30;99.90;;;;;;4229523;28;19967;-60
2022/10/09 04:15:55;;;;;;;;;;;9.30;99.90;;;;;;4228276;28;19908;-59
2022/10/09 04:17:56;;;;;;;;;;;9.30;99.90;;;;;;4229454;28;19908;-60
2022/10/09 04:19:57;;;;;;;;;;;9.20;99.90;;;;;;4227682;28;19938;-58
2022/10/09 04:21:58;;;;;;;;;;;9.10;99.90;;;;;;4229430;28;20356;-59
2022/10/09 04:23:59;;;;;;;;;;;9.10;99.90;;;;;;4228075;28;19933;-61
2022/10/09 04:26:00;;;;;;;;;;;9.10;99.90;;;;;;4229476;28;19951;-60
2022/10/09 04:28:01;;;;;;;;;;;9.10;99.90;;;;;;4228343;28;19912;-60
2022/10/09 04:30:03;;;;;;;;;;;9.10;99.90;;;;;;4228716;28;19964;-60
2022/10/09 04:32:05;;;;;;;;;;;9.10;99.90;;;;;;4228410;28;19956;-60
2022/10/09 04:34:06;;;;;;;;;;;9.10;99.90;;;;;;4227940;28;19912;-60
2022/10/09 04:36:06;;;;;;;;;;;9.00;99.90;;;;;;4228847;28;19943;-59
2022/10/09 04:38:07;;;;;;;;;;;9.00;99.90;;;;;;4227792;27;20315;-59
2022/10/09 04:40:08;;;;;;;;;;;9.00;99.90;;;;;;4228360;28;19915;-59
2022/10/09 04:42:09;;;;;;;;;;;9.00;99.90;;;;;;4227416;28;19961;-59
2022/10/09 04:44:10;;;;;;;;;;;9.10;99.90;;;;;;4228960;28;20374;-59
2022/10/09 04:46:12;;;;;;;;;;;9.10;99.90;;;;;;4227822;28;20245;-59
2022/10/09 04:48:13;;;;;;;;;;;9.20;99.90;;;;;;4228724;28;20329;-60
2022/10/09 04:50:14;;;;;;;;;;;9.30;99.90;;;;;;4227745;28;19923;-60
2022/10/09 04:52:15;;;;;;;;;;;9.40;99.90;;;;;;4229082;28;19916;-59
2022/10/09 04:54:16;;;;;;;;;;;9.50;99.90;;;;;;4226815;28;19907;-59
2022/10/09 04:56:18;;;;;;;;;;;9.60;99.90;;;;;;4228490;28;20275;-60
2022/10/09 04:58:19;;;;;;;;;;;9.60;99.90;;;;;;4227790;28;19907;-59
2022/10/09 05:00:20;;;;;;;;;;;9.70;99.90;;;;;;4227988;28;19916;-60
2022/10/09 05:02:20;;;;;;;;;;;9.70;99.90;;;;;;4228095;28;20040;-60
2022/10/09 05:04:21;;;;;;;;;;;9.80;99.90;;;;;;4228006;28;19911;-60
2022/10/09 05:06:23;;;;;;;;;;;9.90;99.90;;;;;;4228400;28;19912;-59
2022/10/09 05:08:23;;;;;;;;;;;10.00;99.90;;;;;;4227344;28;20372;-61
2022/10/09 05:10:24;;;;;;;;;;;10.00;99.90;;;;;;4228279;28;19920;-61
2022/10/09 05:12:25;;;;;;;;;;;10.10;99.90;;;;;;4227602;28;19916;-60
2022/10/09 05:14:26;;;;;;;;;;;10.20;99.90;;;;;;4228949;28;19957;-59
2022/10/09 05:16:28;;;;;;;;;;;10.40;99.90;;;;;;4227574;28;19923;-59
2022/10/09 05:18:29;;;;;;;;;;;10.50;99.90;;;;;;4228536;28;20004;-59
2022/10/09 05:20:30;;;;;;;;;;;10.60;99.90;;;;;;4227460;28;19912;-59
2022/10/09 05:22:31;;;;;;;;;;;10.80;99.90;;;;;;4229099;28;20318;-59
2022/10/09 05:24:32;;;;;;;;;;;10.90;99.90;;;;;;4227548;28;19961;-60
2022/10/09 05:26:32;;;;;;;;;;;11.20;99.90;;;;;;4229116;28;20318;-59
2022/10/09 05:28:34;;;;;;;;;;;11.50;99.90;;;;;;4227153;28;19908;-60
2022/10/09 05:30:39;;;;;;;;;;;11.70;99.90;;;;;;4227842;28;19976;-59
2022/10/09 05:32:40;;;;;;;;;;;11.80;99.90;;;;;;4227623;28;19965;-60
2022/10/09 05:34:40;;;;;;;;;;;11.80;99.90;;;;;;4227824;28;19912;-61
2022/10/09 05:36:41;;;;;;;;;;;11.80;99.90;;;;;;4228092;28;19961;-59
2022/10/09 05:38:43;;;;;;;;;;;11.70;99.90;;;;;;4226842;28;19912;-60
2022/10/09 05:40:54;;;;;;;;;;;11.70;99.90;;;;;;4227339;28;19912;-60
2022/10/09 05:42:55;;;;;;;;;;;11.70;99.90;;;;;;4226730;28;19957;-60
2022/10/09 05:44:56;;;;;;;;;;;11.70;99.90;;;;;;4228468;28;20421;-59
2022/10/09 05:46:56;;;;;;;;;;;11.60;99.90;;;;;;4227614;28;19915;-60
2022/10/09 05:49:04;;;;;;;;;;;11.60;99.90;;;;;;4222088;28;19919;-61
2022/10/09 05:51:09;;;;;;;;;;;11.60;99.90;;;;;;4226829;28;19927;-59
2022/10/09 05:53:10;;;;;;;;;;;11.60;99.90;;;;;;4227267;28;19911;-59
2022/10/09 05:55:11;;;;;;;;;;;11.70;99.90;;;;;;4227394;28;19964;-61
2022/10/09 05:57:12;;;;;;;;;;;11.70;99.90;;;;;;4228605;28;20372;-60
2022/10/09 05:59:17;;;;;;;;;;;11.70;99.90;;;;;;4225509;28;19912;-62
2022/10/09 06:01:19;;;;;;;;;;;11.80;99.90;;;;;;4223619;28;19945;-60
2022/10/09 06:03:20;;;;;;;;;;;11.90;99.90;;;;;;4225795;27;19912;-60
2022/10/09 06:05:21;;;;;;;;;;;11.90;99.90;;;;;;4227381;28;19923;-61
2022/10/09 06:07:22;;;;;;;;;;;12.00;99.90;;;;;;4229362;27;19912;-60
2022/10/09 06:09:24;;;;;;;;;;;12.10;99.90;;;;;;4230259;28;19919;-60
2022/10/09 06:11:30;;;;;;;;;;;12.20;99.90;;;;;;4230604;28;20035;-60
2022/10/09 06:13:31;;;;;;;;;;;12.20;99.90;;;;;;4230055;27;20795;-60
2022/10/09 06:15:32;;;;;;;;;;;12.30;99.90;;;;;;4212216;28;19915;-59
2022/10/09 06:17:33;;;;;;;;;;;12.40;99.90;;;;;;4229924;27;20466;-61
2022/10/09 06:19:34;;;;;;;;;;;12.50;99.90;;;;;;4230836;28;19945;-64
2022/10/09 06:21:34;;;;;;;;;;;12.50;99.90;;;;;;4230104;27;19974;-62
2022/10/09 06:23:35;;;;;;;;;;;12.60;99.90;;;;;;4230479;27;19912;-60
2022/10/09 06:25:36;;;;;;;;;;;12.70;99.90;;;;;;4229632;28;19912;-62
2022/10/09 06:27:37;;;;;;;;;;;12.70;99.90;;;;;;4231481;28;20319;-60
2022/10/09 06:29:38;;;;;;;;;;;12.70;99.90;;;;;;4229413;28;19977;-62
2022/10/09 06:31:39;;;;;;;;;;;12.70;99.90;;;;;;4230949;28;19924;-61
2022/10/09 06:33:41;;;;;;;;;;;12.70;99.90;;;;;;4229770;28;19912;-60
2022/10/09 06:35:42;;;;;;;;;;;12.80;99.90;;;;;;4230740;28;19965;-67
2022/10/09 06:37:43;;;;;;;;;;;12.90;99.90;;;;;;4229863;28;19912;-63
2022/10/09 06:39:44;;;;;;;;;;;13.10;99.90;;;;;;4230163;27;20264;-61
2022/10/09 06:41:45;;;;;;;;;;;13.20;99.90;;;;;;4229347;28;19957;-62
2022/10/09 06:43:50;;;;;;;;;;;13.50;99.90;;;;;;4229700;28;19918;-63
2022/10/09 06:45:50;;;;;;;;;;;13.60;99.90;;;;;;4229961;28;19911;-62
2022/10/09 06:47:51;;;;;;;;;;;13.80;99.90;;;;;;4229385;28;20440;-63
2022/10/09 06:49:52;;;;;;;;;;;13.80;99.90;;;;;;4230651;28;19912;-64
2022/10/09 06:51:53;;;;;;;;;;;13.70;99.90;;;;;;4229002;28;19924;-62
2022/10/09 06:53:55;;;;;;;;;;;13.70;99.90;;;;;;4230359;28;19915;-62
2022/10/09 06:55:57;;;;;;;;;;;14.00;99.90;;;;;;4229520;28;19907;-63
2022/10/09 06:57:58;;;;;;;;;;;14.50;99.90;;;;;;4230500;28;19969;-62
2022/10/09 06:59:59;;;;;;;;;;;14.90;99.90;;;;;;4229625;27;20299;-63
2022/10/09 07:02:00;;;;;;;;;;;15.30;99.90;;;;;;4230207;28;19924;-62
2022/10/09 07:04:03;;;;;;;;;;;15.90;99.90;;;;;;4229216;28;20346;-60
2022/10/09 07:06:08;;;;;;;;;;;16.40;99.90;;;;;;4230866;27;20429;-63
2022/10/09 07:08:08;;;;;;;;;;;16.90;99.90;;;;;;4230090;28;19912;-58
2022/10/09 07:10:09;;;;;;;;;;;17.20;99.90;;;;;;4230076;28;19943;-65
2022/10/09 07:12:10;;;;;;;;;;;17.60;99.90;;;;;;4229495;28;19916;-60
2022/10/09 07:14:12;;;;;;;;;;;18.00;99.90;;;;;;4230008;27;19915;-61
2022/10/09 07:16:16;;;;;;;;;;;18.20;99.90;;;;;;4229148;28;20424;-60
2022/10/09 07:18:17;;;;;;;;;;;18.30;99.90;;;;;;4228534;28;20257;-62
2022/10/09 07:20:18;;;;;;;;;;;18.40;99.90;;;;;;4229598;28;19957;-63
2022/10/09 07:22:19;;;;;;;;;;;18.50;99.90;;;;;;4228981;28;19914;-60
2022/10/09 07:24:23;;;;;;;;;;;18.60;99.90;;;;;;4230120;28;19919;-61
2022/10/09 07:26:25;;;;;;;;;;;18.70;99.90;;;;;;4229228;28;19932;-60
2022/10/09 07:28:27;;;;;;;;;;;18.90;99.90;;;;;;4230226;28;20291;-61
2022/10/09 07:30:28;;;;;;;;;;;19.10;99.90;;;;;;4228946;28;19965;-61
2022/10/09 07:32:29;;;;;;;;;;;19.30;99.90;;;;;;4229982;28;19908;-61
2022/10/09 07:34:30;;;;;;;;;;;19.20;99.90;;;;;;4228793;28;19911;-62
2022/10/09 07:36:31;;;;;;;;;;;19.00;99.90;;;;;;4229470;28;19923;-64
2022/10/09 07:38:32;;;;;;;;;;;18.90;99.90;;;;;;4228177;28;19920;-61
2022/10/09 07:40:33;;;;;;;;;;;18.90;99.90;;;;;;4229328;28;19916;-61
2022/10/09 07:42:34;;;;;;;;;;;19.10;99.90;;;;;;4228015;28;20059;-61
2022/10/09 07:44:35;;;;;;;;;;;19.20;99.90;;;;;;4228351;28;19915;-61
2022/10/09 07:46:36;;;;;;;;;;;19.30;99.90;;;;;;4229307;27;19957;-61
2022/10/09 07:48:37;;;;;;;;;;;19.80;99.90;;;;;;4228521;28;19977;-62
2022/10/09 07:50:38;;;;;;;;;;;19.90;99.90;;;;;;4228661;28;20429;-61
2022/10/09 07:52:39;;;;;;;;;;;19.80;99.90;;;;;;4228646;28;19953;-62
2022/10/09 07:54:40;;;;;;;;;;;19.50;99.90;;;;;;4229815;28;19912;-62
2022/10/09 07:56:41;;;;;;;;;;;19.20;99.90;;;;;;4228793;28;19953;-61
2022/10/09 07:58:42;;;;;;;;;;;19.10;99.90;;;;;;4229948;28;19922;-62
2022/10/09 08:00:43;;;;;;;;;;;19.30;99.90;;;;;;4228251;28;19919;-62
2022/10/09 08:02:44;;;;;;;;;;;19.50;99.90;;;;;;4229071;28;19908;-61
2022/10/09 08:04:45;;;;;;;;;;;19.70;99.90;;;;;;4228323;28;19962;-63
2022/10/09 08:06:46;;;;;;;;;;;19.70;99.90;;;;;;4229836;27;19907;-64
2022/10/09 08:08:54;;;;;;;;;;;19.10;99.90;;;;;;4228533;28;20006;-63
2022/10/09 08:10:55;;;;;;;;;;;18.60;99.90;;;;;;4229233;28;19919;-62
2022/10/09 08:12:55;;;;;;;;;;;18.10;99.90;;;;;;4228508;28;20344;-65
2022/10/09 08:14:56;;;;;;;;;;;17.60;99.90;;;;;;4228932;28;20268;-64
2022/10/09 08:16:57;;;;;;;;;;;17.20;99.90;;;;;;4228455;28;19912;-64
2022/10/09 08:18:59;;;;;;;;;;;16.90;99.90;;;;;;4228375;28;19907;-65
2022/10/09 08:21:05;;;;;;;;;;;16.70;99.90;;;;;;4228011;28;20004;-63
2022/10/09 08:23:06;;;;;;;;;;;16.50;99.90;;;;;;4228138;28;20321;-65
2022/10/09 08:25:07;;;;;;;;;;;16.40;99.90;;;;;;4228243;28;19916;-62
2022/10/09 08:27:08;;;;;;;;;;;16.40;99.90;;;;;;4228406;28;19975;-60
2022/10/09 08:29:12;;;;;;;;;;;16.30;99.90;;;;;;4228042;28;19926;-63
2022/10/09 08:31:14;;;;;;;;;;;16.30;99.90;;;;;;4227685;28;19969;-63
2022/10/09 08:33:19;;;;;;;;;;;16.40;99.90;;;;;;4229043;27;19908;-62
2022/10/09 08:35:20;;;;;;;;;;;16.50;99.90;;;;;;4227804;28;20365;-62
2022/10/09 08:37:20;;;;;;;;;;;16.70;99.90;;;;;;4228684;28;20002;-61
2022/10/09 08:39:21;;;;;;;;;;;16.80;99.90;;;;;;4227707;28;19912;-62
2022/10/09 08:41:22;;;;;;;;;;;17.00;99.90;;;;;;4228855;28;19968;-64
2022/10/09 08:43:29;;;;;;;;;;;17.10;99.90;;;;;;4227697;28;19914;-65
2022/10/09 08:45:31;;;;;;;;;;;17.00;99.90;;;;;;4227186;28;19956;-64
2022/10/09 08:47:44;;;;;;;;;;;16.90;99.90;;;;;;4226560;28;19907;-63
2022/10/09 08:49:48;;;;;;;;;;;16.90;99.90;;;;;;4227852;28;19915;-61
2022/10/09 08:51:49;;;;;;;;;;;17.00;99.90;;;;;;4227368;28;19919;-61
2022/10/09 08:53:53;;;;;;;;;;;17.10;99.90;;;;;;4228062;28;19923;-65
2022/10/09 08:55:55;;;;;;;;;;;17.20;99.90;;;;;;4227644;28;19904;-64
2022/10/09 08:57:59;;;;;;;;;;;17.40;99.90;;;;;;4228243;28;20010;-65
2022/10/09 09:00:00;;;;;;;;;;;17.40;99.90;;;;;;4227602;28;20402;-65
2022/10/09 09:02:21;;;;;;;;;;;17.30;99.90;;;;;;4227250;28;19927;-65
2022/10/09 09:04:43;;;;;;;;;;;17.30;99.90;;;;;;4227264;28;19920;-64
2022/10/09 09:06:50;;;;;;;;;;;17.70;99.90;;;;;;4227958;28;19912;-65
2022/10/09 09:08:53;;;;;;;;;;;17.90;99.90;;;;;;4227372;28;20333;-61
2022/10/09 09:11:12;;;;;;;;;;;18.10;99.90;;;;;;4227882;28;19984;-61
2022/10/09 09:13:32;;;;;;;;;;;18.00;99.90;;;;;;4227484;28;19916;-61
2022/10/09 09:15:37;;;;;;;;;;;18.00;99.90;;;;;;4227962;28;19919;-62
2022/10/09 09:17:38;;;;;;;;;;;18.00;99.90;;;;;;4227684;28;19934;-61
2022/10/09 09:19:44;;;;;;;;;;;18.10;99.90;;;;;;4226745;28;19911;-62
2022/10/09 09:21:50;;;;;;;;;;;18.00;99.90;;;;;;4227416;28;19907;-60
2022/10/09 09:23:51;;;;;;;;;;;18.00;99.90;;;;;;4227453;28;19919;-62
2022/10/09 09:25:51;;;;;;;;;;;18.00;99.90;;;;;;4227640;28;20330;-61
2022/10/09 09:27:53;;;;;;;;;;;18.10;99.90;;;;;;4227553;28;19919;-61
2022/10/09 09:30:12;;;;;;;;;;;18.40;99.90;;;;;;4227831;28;19916;-62
2022/10/09 09:32:15;;;;;;;;;;;18.80;99.90;;;;;;4227338;28;19996;-62
2022/10/09 09:34:39;;;;;;;;;;;19.10;99.90;;;;;;4227965;28;19915;-61
2022/10/09 09:36:40;;;;;;;;;;;19.10;99.90;;;;;;4218791;28;20377;-62
2022/10/09 09:38:41;;;;;;;;;;;19.20;99.90;;;;;;4227796;28;19916;-62
2022/10/09 09:40:43;;;;;;;;;;;19.20;99.90;;;;;;4228322;28;19998;-62
2022/10/09 09:42:44;;;;;;;;;;;19.00;99.90;;;;;;4231472;28;19911;-62
2022/10/09 09:45:11;;;;;;;;;;;18.90;99.90;;;;;;4230279;28;19957;-62
2022/10/09 09:47:22;;;;;;;;;;;19.10;99.90;;;;;;4228955;28;19961;-62
2022/10/09 09:49:26;;;;;;;;;;;19.20;99.90;;;;;;4230026;28;20210;-61
2022/10/09 09:51:31;;;;;;;;;;;19.30;99.90;;;;;;4230791;28;20349;-63
2022/10/09 09:53:36;;;;;;;;;;;19.30;99.90;;;;;;4230106;28;19933;-61
2022/10/09 09:55:37;;;;;;;;;;;19.30;99.90;;;;;;4230856;28;19912;-62
2022/10/09 09:57:41;;;;;;;;;;;19.20;99.90;;;;;;4230187;28;19914;-61
2022/10/09 09:59:42;;;;;;;;;;;19.30;99.90;;;;;;4231311;28;19933;-61
2022/10/09 10:01:43;;;;;;;;;;;19.30;99.90;;;;;;4229654;28;19965;-62
2022/10/09 10:03:47;;;;;;;;;;;19.40;99.90;;;;;;4231461;27;19930;-61
2022/10/09 10:05:48;;;;;;;;;;;19.30;99.90;;;;;;4229925;28;19973;-62
2022/10/09 10:07:50;;;;;;;;;;;19.20;99.90;;;;;;4230422;28;19933;-61
2022/10/09 10:10:00;;;;;;;;;;;19.10;99.90;;;;;;4230035;27;19949;-62
2022/10/09 10:12:02;;;;;;;;;;;19.00;99.90;;;;;;4230622;28;20330;-62
2022/10/09 10:14:05;;;;;;;;;;;19.00;99.90;;;;;;4229655;28;19933;-61
2022/10/09 10:16:06;;;;;;;;;;;19.00;99.90;;;;;;4230841;27;20450;-60
2022/10/09 10:18:15;;;;;;;;;;;19.00;99.90;;;;;;4229764;28;20280;-61
2022/10/09 10:20:16;;;;;;;;;;;19.00;99.90;;;;;;4230454;28;20351;-61
2022/10/09 10:22:22;;;;;;;;;;;19.10;99.90;;;;;;4230184;28;19912;-61
2022/10/09 10:24:31;;;;;;;;;;;19.20;99.90;;;;;;4230236;28;19908;-61
2022/10/09 10:26:35;;;;;;;;;;;19.20;99.90;;;;;;4230151;28;19912;-61
2022/10/09 10:28:42;;;;;;;;;;;19.30;99.90;;;;;;4229999;28;19912;-61
2022/10/09 10:30:43;;;;;;;;;;;19.40;99.90;;;;;;4230240;28;19912;-62
2022/10/09 10:32:44;;;;;;;;;;;19.40;99.90;;;;;;4229303;28;19916;-62
2022/10/09 10:34:51;;;;;;;;;;;19.40;99.90;;;;;;4230420;28;20356;-61
2022/10/09 10:37:00;;;;;;;;;;;19.20;99.90;;;;;;4228034;28;20355;-61
2022/10/09 10:39:08;;;;;;;;;;;19.20;99.90;;;;;;4230560;28;19912;-66
2022/10/09 10:41:09;;;;;;;;;;;19.20;99.90;;;;;;4229158;28;20324;-61
2022/10/09 10:43:18;;;;;;;;;;;19.20;99.90;;;;;;4229209;27;19908;-62
2022/10/09 10:45:23;;;;;;;;;;;19.30;99.90;;;;;;4229155;28;19969;-61
2022/10/09 10:47:26;;;;;;;;;;;19.50;99.90;;;;;;4230687;27;19912;-61
2022/10/09 10:49:28;;;;;;;;;;;19.60;99.90;;;;;;4229297;28;19907;-62
2022/10/09 10:51:47;;;;;;;;;;;19.60;99.90;;;;;;4229874;28;19920;-61
2022/10/09 10:53:51;;;;;;;;;;;19.60;99.90;;;;;;4229174;28;19920;-61
2022/10/09 10:55:52;;;;;;;;;;;19.50;99.90;;;;;;4230948;28;20372;-61
2022/10/09 10:57:59;;;;;;;;;;;19.40;99.90;;;;;;4227899;28;19918;-61
2022/10/09 11:00:02;;;;;;;;;;;19.30;99.90;;;;;;4230127;28;19912;-61
2022/10/09 11:02:27;;;;;;;;;;;19.30;99.90;;;;;;4228735;28;19927;-60
2022/10/09 11:04:33;;;;;;;;;;;19.40;99.90;;;;;;4229433;28;20403;-60
2022/10/09 11:06:43;;;;;;;;;;;19.50;99.90;;;;;;4228783;28;20456;-62
2022/10/09 11:09:04;;;;;;;;;;;19.50;99.90;;;;;;4230232;28;19912;-61
2022/10/09 11:11:13;;;;;;;;;;;19.50;99.90;;;;;;4197366;28;19919;-61
2022/10/09 11:13:33;;;;;;;;;;;19.40;99.90;;;;;;4230380;28;19997;-61
2022/10/09 11:15:53;;;;;;;;;;;19.40;99.90;;;;;;4229111;28;19912;-61
2022/10/09 11:17:54;;;;;;;;;;;19.50;99.90;;;;;;4230144;28;19953;-61
2022/10/09 11:20:27;;;;;;;;;;;19.40;99.90;;;;;;4228976;27;19908;-61
2022/10/09 11:22:39;;;;;;;;;;;19.50;99.90;;;;;;4195046;28;19912;-61
2022/10/09 11:24:52;;;;;;;;;;;19.40;99.90;;;;;;4229220;28;19912;-60
2022/10/09 11:26:58;;;;;;;;;;;19.30;99.90;;;;;;4229549;28;19981;-61
2022/10/09 11:29:21;;;;;;;;;;;19.20;99.90;;;;;;4228612;27;20350;-62
2022/10/09 11:31:27;;;;;;;;;;;19.10;99.90;;;;;;4228623;28;19923;-62
2022/10/09 11:33:28;;;;;;;;;;;19.10;99.90;;;;;;4228220;28;19912;-62
2022/10/09 11:35:49;;;;;;;;;;;19.20;99.90;;;;;;4227903;28;19937;-60
2022/10/09 11:37:59;;;;;;;;;;;19.20;99.90;;;;;;4228066;28;19977;-61
2022/10/09 11:40:03;;;;;;;;;;;19.30;99.90;;;;;;4229562;27;20333;-61
2022/10/09 11:42:04;;;;;;;;;;;19.40;99.90;;;;;;4228800;28;19908;-61
2022/10/09 11:44:41;;;;;;;;;;;19.50;99.90;;;;;;4229420;28;20371;-64
2022/10/09 11:46:44;;;;;;;;;;;19.60;99.90;;;;;;4177213;28;19908;-66
2022/10/09 11:48:58;;;;;;;;;;;19.60;99.90;;;;;;4203914;28;19957;-62
2022/10/09 11:51:11;;;;;;;;;;;19.50;99.90;;;;;;4228205;28;19941;-59
2022/10/09 11:53:14;;;;;;;;;;;19.40;99.90;;;;;;4228581;28;19972;-64
2022/10/09 11:55:17;;;;;;;;;;;19.30;99.90;;;;;;4229418;27;19925;-64
2022/10/09 11:57:27;;;;;;;;;;;19.30;99.90;;;;;;4228416;28;20343;-64
2022/10/09 11:59:34;;;;;;;;;;;19.20;99.90;;;;;;4228463;28;20351;-62